Time;durP1;ratioP1;P1;durP2;ratioP2;P2;SDS_P1;SDS_P2;PMS_P1;PMS_P2;Temp;Humidity;BMP_temperature;BMP_pressure;BME280_temperature;BME280_humidity;BME280_pressure;Samples;Min_cycle;Max_cycle;Signal;HPM_P1;HPM_P2
2022/06/13 00:00:48;;;;;;;5.60;1.90;;;18.90;81.70;;;;;;5038141;28;20487;-78
2022/06/13 00:03:34;;;;;;;4.77;1.50;;;18.90;83.00;;;;;;5033007;28;20543;-77
2022/06/13 00:06:20;;;;;;;8.57;2.00;;;18.90;84.10;;;;;;5037077;28;20443;-78
2022/06/13 00:09:07;;;;;;;6.90;1.70;;;19.00;83.10;;;;;;5036110;28;20444;-76
2022/06/13 00:11:53;;;;;;;9.30;2.23;;;19.00;80.20;;;;;;5033261;28;20459;-78
2022/06/13 00:14:38;;;;;;;6.07;1.80;;;19.00;80.90;;;;;;5033012;28;20460;-78
2022/06/13 00:17:24;;;;;;;13.40;2.23;;;19.00;79.80;;;;;;5039098;28;20449;-77
2022/06/13 00:20:10;;;;;;;7.40;2.03;;;19.00;80.90;;;;;;5038060;28;20447;-76
2022/06/13 00:22:56;;;;;;;6.67;1.73;;;18.90;83.00;;;;;;5032405;28;21323;-77
2022/06/13 00:25:43;;;;;;;7.20;1.93;;;18.70;81.40;;;;;;5034683;28;20448;-78
2022/06/13 00:28:29;;;;;;;6.13;2.50;;;18.70;81.20;;;;;;5037266;28;20487;-77
2022/06/13 00:31:14;;;;;;;6.80;1.97;;;18.60;83.60;;;;;;5038438;28;20967;-76
2022/06/13 00:34:00;;;;;;;7.87;2.10;;;18.60;83.70;;;;;;5027265;28;20598;-77
2022/06/13 00:36:45;;;;;;;8.90;2.10;;;18.60;80.60;;;;;;5037784;28;20448;-78
2022/06/13 00:39:31;;;;;;;5.67;1.70;;;18.70;82.10;;;;;;5037511;28;20445;-77
2022/06/13 00:42:21;;;;;;;6.80;2.13;;;18.60;82.00;;;;;;5042392;28;20565;-76
2022/06/13 00:45:14;;;;;;;6.83;2.07;;;18.50;82.70;;;;;;5030081;28;21001;-77
2022/06/13 00:48:00;;;;;;;7.83;2.03;;;18.40;82.60;;;;;;5039931;28;20455;-78
2022/06/13 00:50:50;;;;;;;6.90;2.07;;;18.20;81.90;;;;;;5037406;28;20922;-78
2022/06/13 00:53:37;;;;;;;5.90;2.47;;;18.20;81.20;;;;;;5027919;28;20461;-78
2022/06/13 00:56:27;;;;;;;8.03;2.07;;;17.90;82.20;;;;;;5033664;28;20523;-77
2022/06/13 00:59:17;;;;;;;5.47;2.23;;;17.70;82.20;;;;;;5035924;28;20473;-77
2022/06/13 01:02:03;;;;;;;10.03;2.07;;;17.60;83.20;;;;;;5031848;28;20484;-75
2022/06/13 01:04:52;;;;;;;5.03;1.80;;;17.50;83.40;;;;;;5029863;28;20816;-78
2022/06/13 01:07:38;;;;;;;7.17;1.93;;;17.40;83.80;;;;;;5037905;28;20540;-77
2022/06/13 01:13:34;;;;;;;7.03;1.80;;;17.30;84.60;;;;;;5022321;28;20488;-75
2022/06/13 01:16:33;;;;;;;5.47;2.00;;;17.20;86.00;;;;;;5042646;28;20813;-78
2022/06/13 01:19:55;;;;;;;5.53;2.10;;;17.20;86.30;;;;;;5035383;28;20816;-78
2022/06/13 01:23:18;;;;;;;6.10;2.77;;;17.20;87.20;;;;;;5033878;28;20826;-76
2022/06/13 01:26:37;;;;;;;8.03;2.17;;;17.20;86.10;;;;;;5035948;28;20451;-76
2022/06/13 01:30:04;;;;;;;4.40;1.90;;;17.20;86.10;;;;;;5036576;28;20456;-78
2022/06/13 01:33:02;;;;;;;9.70;2.13;;;17.00;87.90;;;;;;4953126;28;21096;-77
2022/06/13 01:36:00;;;;;;;6.67;2.33;;;16.90;87.40;;;;;;5033724;28;20425;-77
2022/06/13 01:39:00;;;;;;;9.07;2.20;;;16.80;88.20;;;;;;5040716;28;20595;-76
2022/06/13 01:42:04;;;;;;;11.40;3.07;;;16.80;88.90;;;;;;5037692;28;20460;-77
2022/06/13 01:45:02;;;;;;;7.43;2.37;;;16.90;89.20;;;;;;5028588;28;20463;-77
2022/06/13 01:47:57;;;;;;;3.67;1.70;;;17.00;88.40;;;;;;5042356;28;20452;-77
2022/06/13 01:50:48;;;;;;;11.00;2.63;;;17.00;88.40;;;;;;5040237;28;20443;-78
2022/06/13 01:53:44;;;;;;;8.30;2.07;;;16.90;88.30;;;;;;5027555;28;20464;-77
2022/06/13 01:56:34;;;;;;;14.23;2.37;;;16.80;87.30;;;;;;5036462;28;20503;-77
2022/06/13 01:59:27;;;;;;;5.10;2.00;;;16.70;87.90;;;;;;5036867;28;20965;-77
2022/06/13 02:02:22;;;;;;;11.83;2.00;;;16.60;89.00;;;;;;5027802;28;20483;-76
2022/06/13 02:05:14;;;;;;;5.07;2.20;;;16.60;89.60;;;;;;5028750;28;21092;-77
2022/06/13 02:08:07;;;;;;;9.73;2.77;;;16.60;89.50;;;;;;5034328;28;20435;-78
2022/06/13 02:10:58;;;;;;;4.93;1.80;;;16.50;90.00;;;;;;5029508;28;20590;-78
2022/06/13 02:13:50;;;;;;;4.50;1.93;;;16.40;90.30;;;;;;5033149;28;20565;-78
2022/06/13 02:16:43;;;;;;;9.97;2.50;;;16.20;90.70;;;;;;5039065;28;20460;-76
2022/06/13 02:19:34;;;;;;;6.23;2.63;;;16.20;91.30;;;;;;5032132;28;20457;-77
2022/06/13 02:22:28;;;;;;;8.63;2.43;;;16.10;91.40;;;;;;5029814;28;20589;-77
2022/06/13 02:25:18;;;;;;;5.80;2.33;;;16.20;91.70;;;;;;5031271;28;20443;-76
2022/06/13 02:28:11;;;;;;;7.97;2.47;;;16.20;91.40;;;;;;5031211;28;20441;-77
2022/06/13 02:31:05;;;;;;;4.47;2.50;;;16.10;91.60;;;;;;5035241;28;20444;-76
2022/06/13 02:33:56;;;;;;;7.27;2.20;;;16.10;91.70;;;;;;5031610;28;20571;-78
2022/06/13 02:36:48;;;;;;;4.07;2.20;;;16.10;91.50;;;;;;5031772;28;20421;-77
2022/06/13 02:39:41;;;;;;;11.60;2.13;;;16.00;91.80;;;;;;5031185;28;20808;-78
2022/06/13 02:42:32;;;;;;;10.23;2.43;;;16.10;91.70;;;;;;5026669;28;20508;-77
2022/06/13 02:45:23;;;;;;;11.53;1.80;;;16.10;91.40;;;;;;5033904;28;20448;-78
2022/06/13 02:48:22;;;;;;;6.47;2.57;;;16.00;91.50;;;;;;5035367;28;20421;-79
2022/06/13 02:51:17;;;;;;;6.10;2.10;;;15.90;91.90;;;;;;5030434;28;20468;-77
2022/06/13 02:54:09;;;;;;;5.87;2.30;;;16.00;91.80;;;;;;5030230;28;20484;-77
2022/06/13 02:57:27;;;;;;;10.03;2.13;;;16.00;92.00;;;;;;5035543;28;20531;-76
2022/06/13 03:00:24;;;;;;;6.47;2.80;;;15.90;91.80;;;;;;5034672;28;20448;-78
2022/06/13 03:03:17;;;;;;;5.20;2.10;;;15.80;92.00;;;;;;5029551;28;20459;-77
2022/06/13 03:06:07;;;;;;;11.60;2.80;;;15.90;92.10;;;;;;5032477;28;20452;-75
2022/06/13 03:09:02;;;;;;;5.97;2.60;;;15.70;92.20;;;;;;5035679;28;20472;-78
2022/06/13 03:11:56;;;;;;;5.23;2.20;;;15.60;92.80;;;;;;5032236;28;20842;-76
2022/06/13 03:14:52;;;;;;;9.33;2.90;;;15.50;93.00;;;;;;5035516;28;20460;-75
2022/06/13 03:17:45;;;;;;;4.60;3.10;;;15.40;93.50;;;;;;5037140;28;20808;-77
2022/06/13 03:20:35;;;;;;;8.07;2.50;;;15.20;94.10;;;;;;5038442;28;20449;-78
2022/06/13 03:23:26;;;;;;;11.03;2.10;;;15.20;94.80;;;;;;5030492;28;20820;-77
2022/06/13 03:26:19;;;;;;;7.93;2.27;;;15.20;94.70;;;;;;5032260;28;20568;-76
2022/06/13 03:29:13;;;;;;;5.33;2.37;;;15.20;95.00;;;;;;5032858;28;20499;-76
2022/06/13 03:32:07;;;;;;;13.73;2.43;;;15.30;95.30;;;;;;5024961;28;20445;-76
2022/06/13 03:34:56;;;;;;;10.73;3.03;;;15.40;95.10;;;;;;5034997;28;20543;-76
2022/06/13 03:37:46;;;;;;;7.73;2.70;;;15.50;94.60;;;;;;5035935;28;20575;-76
2022/06/13 03:40:33;;;;;;;10.17;3.10;;;15.40;94.60;;;;;;5032092;28;20554;-76
2022/06/13 03:43:23;;;;;;;11.77;3.00;;;15.30;94.90;;;;;;5035781;28;20526;-76
2022/06/13 03:46:14;;;;;;;8.57;2.40;;;15.10;95.20;;;;;;5033397;28;20923;-75
2022/06/13 03:49:04;;;;;;;9.10;2.77;;;15.10;95.70;;;;;;5039378;28;20455;-78
2022/06/13 03:51:53;;;;;;;6.13;2.50;;;15.20;95.70;;;;;;5032132;28;20952;-77
2022/06/13 03:54:44;;;;;;;6.53;2.40;;;15.10;96.00;;;;;;5038213;28;21004;-78
2022/06/13 03:57:36;;;;;;;5.87;2.30;;;15.00;96.50;;;;;;5034733;28;20468;-78
2022/06/13 04:00:27;;;;;;;5.27;2.50;;;15.00;97.10;;;;;;5035156;28;20571;-75
2022/06/13 04:03:13;;;;;;;5.10;2.70;;;15.00;97.60;;;;;;5036985;28;20970;-78
2022/06/13 04:06:03;;;;;;;4.53;1.90;;;15.10;97.90;;;;;;5039319;28;20455;-77
2022/06/13 04:08:49;;;;;;;5.50;3.00;;;15.20;98.50;;;;;;5035909;28;20522;-77
2022/06/13 04:12:04;;;;;;;4.90;2.60;;;15.30;98.70;;;;;;5034062;28;20518;-77
2022/06/13 04:15:14;;;;;;;5.60;2.50;;;15.40;98.50;;;;;;5045266;28;20888;-77
2022/06/13 04:18:07;;;;;;;9.10;2.50;;;15.60;98.10;;;;;;5018697;28;20451;-78
2022/06/13 04:21:01;;;;;;;6.60;2.10;;;15.60;97.80;;;;;;5038250;28;20467;-77
2022/06/13 04:23:52;;;;;;;6.43;2.53;;;15.50;97.70;;;;;;5035447;28;20461;-77
2022/06/13 04:26:45;;;;;;;7.83;3.37;;;15.50;97.60;;;;;;5038947;28;20452;-77
2022/06/13 04:29:38;;;;;;;7.10;2.87;;;15.60;98.00;;;;;;5038703;28;20603;-76
2022/06/13 04:32:34;;;;;;;5.30;2.30;;;15.50;98.50;;;;;;5037971;28;20448;-76
2022/06/13 04:35:20;;;;;;;3.90;2.37;;;15.60;99.10;;;;;;5039154;28;20435;-78
2022/06/13 04:38:09;;;;;;;6.47;2.20;;;15.60;99.20;;;;;;5038097;28;23022;-78
2022/06/13 04:41:01;;;;;;;5.97;2.47;;;15.80;99.20;;;;;;5030656;28;20505;-78
2022/06/13 04:43:51;;;;;;;5.67;2.37;;;15.90;99.30;;;;;;5040503;28;20484;-77
2022/06/13 04:46:38;;;;;;;8.17;2.80;;;16.10;99.30;;;;;;5038805;28;20444;-78
2022/06/13 04:49:28;;;;;;;10.23;3.90;;;16.10;99.20;;;;;;5038412;28;20595;-76
2022/06/13 04:52:18;;;;;;;12.00;2.97;;;16.30;99.40;;;;;;5036597;28;20560;-78
2022/06/13 04:55:07;;;;;;;4.27;2.77;;;16.40;99.50;;;;;;5033976;28;20459;-77
2022/06/13 04:57:54;;;;;;;4.37;2.30;;;16.60;99.50;;;;;;5025037;28;20784;-77
2022/06/13 05:00:40;;;;;;;9.97;2.80;;;16.70;99.10;;;;;;5032188;28;20444;-77
2022/06/13 05:03:29;;;;;;;9.27;3.63;;;16.90;99.20;;;;;;5034232;28;20563;-77
2022/06/13 05:06:27;;;;;;;10.77;3.70;;;17.00;99.00;;;;;;5030884;28;20909;-77
2022/06/13 05:09:17;;;;;;;12.37;3.20;;;17.10;98.40;;;;;;5033553;28;20432;-77
2022/06/13 05:12:13;;;;;;;8.80;2.80;;;17.30;98.40;;;;;;5033158;28;20435;-77
2022/06/13 05:15:05;;;;;;;4.83;2.67;;;17.40;98.00;;;;;;5033589;28;20443;-77
2022/06/13 05:18:16;;;;;;;9.77;3.20;;;17.40;98.30;;;;;;5032965;28;20456;-77
2022/06/13 05:21:17;;;;;;;7.00;3.53;;;17.40;97.90;;;;;;5027857;28;20582;-77
2022/06/13 05:24:22;;;;;;;3.90;2.57;;;17.30;97.00;;;;;;5042580;28;20479;-78
2022/06/13 05:27:08;;;;;;;7.30;2.87;;;17.40;97.30;;;;;;5036547;28;20428;-78
2022/06/13 05:29:54;;;;;;;8.47;2.53;;;17.60;97.40;;;;;;5028241;28;20439;-76
2022/06/13 05:32:41;;;;;;;15.77;3.17;;;17.80;96.50;;;;;;5044020;28;20440;-76
2022/06/13 05:35:30;;;;;;;8.50;2.97;;;17.90;94.00;;;;;;5036431;28;20440;-77
2022/06/13 05:38:18;;;;;;;7.50;2.43;;;18.00;90.80;;;;;;5034453;28;20428;-77
2022/06/13 05:41:04;;;;;;;6.90;1.90;;;18.10;83.00;;;;;;5032139;28;20459;-76
2022/06/13 05:43:50;;;;;;;5.60;2.80;;;18.20;77.80;;;;;;5035475;28;20516;-77
2022/06/13 05:46:37;;;;;;;4.60;2.03;;;18.30;73.20;;;;;;5032812;28;22060;-76
2022/06/13 05:49:25;;;;;;;13.13;2.53;;;18.20;70.50;;;;;;5032418;28;20487;-76
2022/06/13 05:52:11;;;;;;;6.07;2.90;;;18.40;71.10;;;;;;5037904;28;20427;-77
2022/06/13 05:54:56;;;;;;;6.10;1.93;;;18.50;68.80;;;;;;5027359;28;20930;-77
2022/06/13 05:57:42;;;;;;;7.70;1.87;;;18.60;69.50;;;;;;5032722;28;20544;-77
2022/06/13 06:00:31;;;;;;;5.73;2.50;;;18.80;66.00;;;;;;5028494;28;20504;-77
2022/06/13 06:03:17;;;;;;;6.53;1.90;;;18.80;63.90;;;;;;5031497;28;21035;-78
2022/06/13 06:06:05;;;;;;;10.47;2.33;;;18.70;62.60;;;;;;5043443;28;20507;-77
2022/06/13 06:08:54;;;;;;;5.37;2.20;;;18.80;62.80;;;;;;5031379;28;20463;-78
2022/06/13 06:11:39;;;;;;;7.70;1.90;;;18.90;62.60;;;;;;5037819;28;20914;-78
2022/06/13 06:14:25;;;;;;;12.43;2.17;;;19.00;64.10;;;;;;5034304;28;20443;-78
2022/06/13 06:17:11;;;;;;;5.90;1.97;;;19.10;63.00;;;;;;5043671;28;20428;-78
2022/06/13 06:19:56;;;;;;;5.33;1.67;;;19.20;62.00;;;;;;5032631;28;20444;-78
2022/06/13 06:22:43;;;;;;;9.63;2.80;;;19.30;59.70;;;;;;5040293;28;20445;-77
2022/06/13 06:25:29;;;;;;;5.40;1.80;;;19.20;56.40;;;;;;5034305;28;20564;-77
2022/06/13 06:28:17;;;;;;;8.63;2.67;;;19.30;60.60;;;;;;5030265;28;20480;-78
2022/06/13 06:31:04;;;;;;;4.30;1.40;;;19.30;56.80;;;;;;5033529;28;20437;-77
2022/06/13 06:33:50;;;;;;;9.10;2.70;;;19.40;55.10;;;;;;5032196;28;20456;-77
2022/06/13 06:36:35;;;;;;;14.80;2.77;;;19.50;56.60;;;;;;5035848;28;20435;-77
2022/06/13 06:39:23;;;;;;;4.87;1.90;;;19.70;54.70;;;;;;5026463;28;20456;-77
2022/06/13 06:42:09;;;;;;;7.37;1.90;;;19.80;55.10;;;;;;5030575;28;20424;-77
2022/06/13 06:44:54;;;;;;;6.77;2.10;;;19.90;53.30;;;;;;5028169;28;20451;-78
2022/06/13 06:47:40;;;;;;;5.60;1.80;;;19.90;52.20;;;;;;5032770;28;20437;-78
2022/06/13 06:50:29;;;;;;;5.43;2.00;;;19.80;51.60;;;;;;5026290;28;20425;-77
2022/06/13 06:53:16;;;;;;;5.60;2.80;;;19.80;53.80;;;;;;5032630;28;20440;-77
2022/06/13 07:02:11;;;;;;;7.70;2.40;;;19.60;52.90;;;;;;5030384;28;20992;-77
2022/06/13 07:05:01;;;;;;;9.00;2.57;;;19.60;55.40;;;;;;5039998;28;20984;-77
2022/06/13 07:07:48;;;;;;;7.80;2.40;;;19.80;55.30;;;;;;5037498;28;20441;-77
2022/06/13 07:10:34;;;;;;;6.93;2.77;;;19.70;53.10;;;;;;5038703;28;20427;-77
2022/06/13 07:13:21;;;;;;;8.53;3.50;;;19.70;53.50;;;;;;5031023;28;20997;-77
2022/06/13 07:16:07;;;;;;;7.03;2.60;;;19.80;50.50;;;;;;5030190;28;20416;-77
2022/06/13 07:18:53;;;;;;;6.37;2.53;;;19.50;51.60;;;;;;5028057;28;20506;-77
2022/06/13 07:21:38;;;;;;;7.50;2.90;;;19.50;51.90;;;;;;5039253;28;20428;-77
2022/06/13 07:24:24;;;;;;;6.37;2.37;;;19.60;54.60;;;;;;5030100;28;20484;-76
2022/06/13 07:27:10;;;;;;;8.53;2.57;;;19.80;52.50;;;;;;5043468;28;20439;-77
2022/06/13 07:29:58;;;;;;;5.23;2.33;;;19.90;51.20;;;;;;5037940;28;20439;-78
2022/06/13 07:32:44;;;;;;;5.27;1.73;;;19.90;49.80;;;;;;5045926;28;20450;-76
2022/06/13 07:35:30;;;;;;;6.43;2.60;;;20.00;51.80;;;;;;5042425;28;20484;-77
2022/06/13 07:38:18;;;;;;;10.27;2.60;;;20.10;53.40;;;;;;5033958;28;20591;-77
2022/06/13 07:41:04;;;;;;;7.30;2.53;;;20.20;51.40;;;;;;5033975;28;20960;-77
2022/06/13 07:43:52;;;;;;;8.60;2.63;;;20.40;48.40;;;;;;5042872;28;20906;-76
2022/06/13 07:46:39;;;;;;;5.60;2.00;;;20.50;47.00;;;;;;5035370;28;20451;-77
2022/06/13 07:49:25;;;;;;;6.57;2.43;;;20.30;46.00;;;;;;5028325;28;20498;-77
2022/06/13 07:52:11;;;;;;;13.63;2.80;;;20.20;49.10;;;;;;5039539;28;21156;-77
2022/06/13 07:54:56;;;;;;;10.67;2.53;;;20.10;49.30;;;;;;5029539;28;20482;-77
2022/06/13 07:57:42;;;;;;;5.93;2.17;;;20.00;49.50;;;;;;5036380;28;20535;-77
2022/06/13 08:00:32;;;;;;;5.53;2.03;;;19.70;49.20;;;;;;5038639;28;20474;-77
2022/06/13 08:03:23;;;;;;;5.30;2.33;;;19.70;52.10;;;;;;5030292;28;20470;-78
2022/06/13 08:06:10;;;;;;;10.37;3.00;;;19.70;51.10;;;;;;5038097;28;20428;-77
2022/06/13 08:08:56;;;;;;;6.73;2.67;;;19.70;51.40;;;;;;5029640;28;20444;-78
2022/06/13 08:11:46;;;;;;;9.87;2.80;;;19.90;51.80;;;;;;5036884;28;20906;-77
2022/06/13 08:14:31;;;;;;;6.97;2.97;;;20.10;53.20;;;;;;5039394;28;20579;-78
2022/06/13 08:17:20;;;;;;;8.13;2.87;;;20.00;51.40;;;;;;5031308;28;20459;-77
2022/06/13 08:20:09;;;;;;;11.10;3.87;;;19.80;51.40;;;;;;5032314;28;20432;-78
2022/06/13 08:22:58;;;;;;;7.13;2.93;;;19.80;53.10;;;;;;5034376;28;20471;-78
2022/06/13 08:25:43;;;;;;;9.23;2.47;;;19.80;54.00;;;;;;5041776;28;20933;-78
2022/06/13 08:28:30;;;;;;;5.40;2.63;;;20.00;53.30;;;;;;5025493;28;20522;-78
2022/06/13 08:31:19;;;;;;;8.20;1.90;;;20.30;48.10;;;;;;5037586;28;20423;-78
2022/06/13 08:34:06;;;;;;;4.10;1.73;;;20.50;46.90;;;;;;5040240;28;20452;-77
2022/06/13 08:36:53;;;;;;;4.90;2.13;;;20.60;41.80;;;;;;5039717;28;20874;-78
2022/06/13 08:39:39;;;;;;;7.00;2.20;;;20.80;38.00;;;;;;5033999;28;20563;-78
2022/06/13 08:42:32;;;;;;;4.80;1.67;;;21.00;37.30;;;;;;5047059;28;20503;-77
2022/06/13 08:45:23;;;;;;;3.53;1.40;;;21.00;36.80;;;;;;5036796;28;20421;-78
2022/06/13 08:48:13;;;;;;;4.30;1.40;;;20.90;35.20;;;;;;5027138;28;20445;-77
2022/06/13 08:51:04;;;;;;;5.60;2.13;;;20.60;38.90;;;;;;5033841;28;20429;-76
2022/06/13 08:53:56;;;;;;;6.20;2.00;;;20.50;37.90;;;;;;5040508;28;20449;-78
2022/06/13 08:56:44;;;;;;;6.73;2.10;;;20.70;39.20;;;;;;5032899;28;20464;-77
2022/06/13 08:59:34;;;;;;;9.50;2.23;;;20.70;36.90;;;;;;5036353;28;20429;-78
2022/06/13 09:02:24;;;;;;;7.67;2.20;;;20.80;39.00;;;;;;5037633;28;20511;-76
2022/06/13 09:05:15;;;;;;;7.50;1.83;;;21.00;40.60;;;;;;5041993;28;20509;-78
2022/06/13 09:08:08;;;;;;;5.53;1.80;;;21.20;38.20;;;;;;5025204;28;20445;-77
2022/06/13 09:11:00;;;;;;;7.20;1.93;;;21.10;34.10;;;;;;5039183;28;20210;-77
2022/06/13 09:13:52;;;;;;;8.10;2.70;;;21.00;34.40;;;;;;5035234;28;20465;-77
2022/06/13 09:16:43;;;;;;;7.40;3.27;;;21.10;36.60;;;;;;5035813;28;20473;-77
2022/06/13 09:19:37;;;;;;;13.70;2.30;;;21.30;35.60;;;;;;5035239;28;20421;-77
2022/06/13 09:22:28;;;;;;;5.93;2.60;;;21.50;37.60;;;;;;5035701;28;20506;-76
2022/06/13 09:25:23;;;;;;;6.60;2.27;;;21.70;37.10;;;;;;5026347;28;20870;-76
2022/06/13 09:28:19;;;;;;;8.83;2.33;;;21.90;36.80;;;;;;5037570;28;20428;-75
2022/06/13 09:31:08;;;;;;;7.30;2.60;;;21.90;35.30;;;;;;5040874;28;20499;-76
2022/06/13 09:34:01;;;;;;;8.97;2.67;;;21.80;35.40;;;;;;5034435;28;20436;-76
2022/06/13 09:36:52;;;;;;;6.63;2.50;;;21.80;36.00;;;;;;5027996;28;20445;-77
2022/06/13 09:39:39;;;;;;;6.83;2.20;;;21.80;37.30;;;;;;5034448;28;20433;-77
2022/06/13 09:42:42;;;;;;;7.33;2.30;;;22.10;38.10;;;;;;5045068;28;20555;-77
2022/06/13 09:45:43;;;;;;;8.53;2.17;;;22.20;37.40;;;;;;5033699;28;20429;-76
2022/06/13 09:48:46;;;;;;;6.30;2.13;;;22.30;35.30;;;;;;5033891;28;20424;-76
2022/06/13 09:51:42;;;;;;;8.50;2.20;;;22.10;33.30;;;;;;5029694;28;20436;-76
2022/06/13 09:54:40;;;;;;;6.40;2.20;;;21.80;32.20;;;;;;5027827;28;20824;-76
2022/06/13 09:57:38;;;;;;;4.87;2.17;;;21.80;33.20;;;;;;5025507;28;20595;-76
2022/06/13 10:00:38;;;;;;;6.30;2.67;;;21.70;33.50;;;;;;5032965;28;20445;-76
2022/06/13 10:03:33;;;;;;;7.33;1.93;;;21.40;34.00;;;;;;5027210;28;20508;-76
2022/06/13 10:06:26;;;;;;;6.03;2.07;;;21.30;35.80;;;;;;5023712;28;20445;-76
2022/06/13 10:09:25;;;;;;;8.63;2.50;;;21.30;35.00;;;;;;5033266;28;20460;-76
2022/06/13 10:12:26;;;;;;;5.73;2.40;;;21.30;36.30;;;;;;5026081;28;20488;-77
2022/06/13 10:15:26;;;;;;;6.50;2.63;;;21.20;36.20;;;;;;5026674;28;20627;-75
2022/06/13 10:18:28;;;;;;;9.23;2.10;;;21.30;35.60;;;;;;5032232;28;20810;-75
2022/06/13 10:21:24;;;;;;;5.80;2.20;;;21.50;34.80;;;;;;5030978;28;20428;-76
2022/06/13 10:24:24;;;;;;;4.53;1.63;;;21.80;32.40;;;;;;5021725;28;20566;-74
2022/06/13 10:27:18;;;;;;;8.80;2.03;;;21.70;32.20;;;;;;5022976;28;20496;-76
2022/06/13 10:30:15;;;;;;;6.33;2.20;;;21.60;31.50;;;;;;5034779;28;20576;-76
2022/06/13 10:33:30;;;;;;;7.67;2.27;;;21.60;32.70;;;;;;5028762;28;20432;-76
2022/06/13 10:36:23;;;;;;;4.10;2.10;;;21.90;30.80;;;;;;5025144;28;20611;-76
2022/06/13 10:39:11;;;;;;;5.93;2.60;;;21.70;30.80;;;;;;5028954;28;20587;-76
2022/06/13 10:42:02;;;;;;;5.83;2.17;;;21.60;31.80;;;;;;5027942;28;20499;-76
2022/06/13 10:44:48;;;;;;;9.10;2.07;;;21.70;32.00;;;;;;5025965;28;20487;-76
2022/06/13 10:47:39;;;;;;;10.57;2.00;;;21.80;32.50;;;;;;5026347;28;20444;-76
2022/06/13 10:50:29;;;;;;;4.50;2.20;;;21.90;30.80;;;;;;5027376;28;21100;-76
2022/06/13 10:53:21;;;;;;;4.20;1.73;;;22.20;31.30;;;;;;5044344;22;20485;-75
2022/06/13 10:56:13;;;;;;;10.67;3.13;;;22.40;29.50;;;;;;5043760;28;20806;-75
2022/06/13 10:58:59;;;;;;;6.30;2.10;;;22.50;30.10;;;;;;5050258;28;20444;-75
2022/06/13 11:01:56;;;;;;;6.93;1.90;;;22.60;29.20;;;;;;5054224;28;20447;-74
2022/06/13 11:04:41;;;;;;;6.53;2.23;;;22.60;28.50;;;;;;5055401;28;20479;-75
2022/06/13 11:07:27;;;;;;;7.23;1.87;;;22.50;28.50;;;;;;5054716;28;20887;-74
2022/06/13 11:10:34;;;;;;;8.23;2.43;;;22.40;27.10;;;;;;5056113;28;20472;-75
2022/06/13 11:13:28;;;;;;;3.40;1.83;;;22.30;28.60;;;;;;5050219;28;20447;-74
2022/06/13 11:22:40;;;;;;;5.20;1.67;;;22.80;26.90;;;;;;5037589;28;20450;-75
2022/06/13 11:25:29;;;;;;;5.80;2.13;;;22.80;27.50;;;;;;5047124;28;20483;-75
2022/06/13 11:28:21;;;;;;;6.93;2.20;;;22.90;28.30;;;;;;5053968;28;20976;-75
2022/06/13 11:31:15;;;;;;;6.07;2.00;;;22.90;27.90;;;;;;5055717;28;20442;-75
2022/06/13 11:34:21;;;;;;;4.17;1.80;;;23.10;28.10;;;;;;5047693;28;20912;-75
2022/06/13 11:37:19;;;;;;;6.23;2.20;;;23.00;27.70;;;;;;5054410;28;20494;-75
2022/06/13 11:40:17;;;;;;;3.80;1.80;;;23.00;28.90;;;;;;5050060;28;20447;-75
2022/06/13 11:43:03;;;;;;;6.40;1.80;;;22.80;28.30;;;;;;5051103;28;20513;-74
2022/06/13 11:45:59;;;;;;;6.47;2.00;;;22.40;27.00;;;;;;5051241;28;20558;-74
2022/06/13 11:48:48;;;;;;;4.30;2.17;;;22.60;28.00;;;;;;5056924;28;20443;-75
2022/06/13 11:51:41;;;;;;;5.50;2.00;;;22.80;27.50;;;;;;5056859;28;20497;-74
2022/06/13 11:54:32;;;;;;;8.80;3.50;;;22.80;25.70;;;;;;5048125;28;20467;-75
2022/06/13 11:57:29;;;;;;;5.07;2.17;;;22.70;26.60;;;;;;5050360;28;20487;-75
2022/06/13 12:00:29;;;;;;;6.20;2.10;;;23.00;28.90;;;;;;5053837;28;20439;-75
2022/06/13 12:03:19;;;;;;;4.60;1.90;;;23.10;26.60;;;;;;5050526;28;20443;-74
2022/06/13 12:06:10;;;;;;;6.20;1.97;;;23.00;27.00;;;;;;5051892;28;20963;-74
2022/06/13 12:09:06;;;;;;;5.73;1.90;;;23.00;26.40;;;;;;5056815;28;20533;-75
2022/06/13 12:11:56;;;;;;;6.53;2.07;;;22.90;26.80;;;;;;5054117;28;20457;-75
2022/06/13 12:14:43;;;;;;;4.27;2.17;;;22.70;27.70;;;;;;5045935;28;20464;-75
2022/06/13 12:17:36;;;;;;;5.23;2.20;;;22.70;27.80;;;;;;5046790;28;20606;-74
2022/06/13 12:20:29;;;;;;;6.47;2.00;;;22.90;27.20;;;;;;5050022;28;20504;-75
2022/06/13 12:23:25;;;;;;;6.90;2.33;;;23.20;27.40;;;;;;5047538;28;20424;-76
2022/06/13 12:26:22;;;;;;;5.60;2.13;;;23.00;26.20;;;;;;5047728;28;20447;-75
2022/06/13 12:29:24;;;;;;;5.00;1.83;;;22.60;27.60;;;;;;5044807;28;21025;-75
2022/06/13 12:32:18;;;;;;;4.37;2.03;;;22.60;27.90;;;;;;5046947;28;20451;-74
2022/06/13 12:35:18;;;;;;;5.37;1.87;;;22.50;28.50;;;;;;5048834;28;20491;-74
2022/06/13 12:38:18;;;;;;;6.63;2.20;;;22.70;28.60;;;;;;5047456;28;20447;-73
2022/06/13 12:41:12;;;;;;;5.50;1.93;;;23.10;27.50;;;;;;5053208;28;21167;-74
2022/06/13 12:44:21;;;;;;;6.27;2.07;;;23.30;26.30;;;;;;5048994;28;20578;-75
2022/06/13 12:47:33;;;;;;;5.40;1.80;;;23.30;27.50;;;;;;5057941;28;20937;-74
2022/06/13 12:50:49;;;;;;;5.70;2.20;;;23.60;27.50;;;;;;5052595;28;20423;-75
2022/06/13 12:54:01;;;;;;;6.20;2.13;;;23.60;26.80;;;;;;5049193;28;20991;-74
2022/06/13 12:56:54;;;;;;;4.47;1.77;;;23.50;26.10;;;;;;5050140;28;20431;-74
2022/06/13 13:00:01;;;;;;;6.87;2.30;;;23.20;25.30;;;;;;5047207;28;20545;-74
2022/06/13 13:03:13;;;;;;;6.33;1.93;;;23.10;25.50;;;;;;5041522;28;20451;-74
2022/06/13 13:06:07;;;;;;;4.10;1.60;;;23.10;25.80;;;;;;5051657;28;20531;-74
2022/06/13 13:09:07;;;;;;;5.13;1.90;;;23.10;26.70;;;;;;5051272;28;20445;-74
2022/06/13 13:12:10;;;;;;;3.90;1.70;;;23.10;26.60;;;;;;5052436;28;20426;-74
2022/06/13 13:15:02;;;;;;;6.30;2.43;;;23.10;27.50;;;;;;5049359;28;20552;-74
2022/06/13 13:17:55;;;;;;;6.87;2.33;;;23.10;28.50;;;;;;5054357;28;20428;-74
2022/06/13 13:20:47;;;;;;;4.40;2.03;;;23.10;28.30;;;;;;5056550;28;20575;-74
2022/06/13 13:23:40;;;;;;;4.90;2.10;;;23.10;27.40;;;;;;5041582;28;20469;-74
2022/06/13 13:26:38;;;;;;;6.83;2.40;;;22.90;28.80;;;;;;5050081;28;20439;-74
2022/06/13 13:29:33;;;;;;;8.30;2.57;;;22.90;28.80;;;;;;5042943;28;20527;-74
2022/06/13 13:32:32;;;;;;;6.13;1.90;;;23.00;28.70;;;;;;5047332;28;20943;-74
2022/06/13 13:35:28;;;;;;;4.83;2.37;;;22.90;28.80;;;;;;5036281;28;20476;-74
2022/06/13 13:38:20;;;;;;;6.70;2.27;;;23.00;28.90;;;;;;5050836;28;20431;-74
2022/06/13 13:41:10;;;;;;;8.33;2.37;;;22.90;28.80;;;;;;5048443;28;20520;-75
2022/06/13 13:44:03;;;;;;;5.90;2.30;;;23.20;29.10;;;;;;5044046;28;20832;-75
2022/06/13 13:46:54;;;;;;;6.70;2.40;;;23.70;28.70;;;;;;5045523;28;20437;-75
2022/06/13 13:49:44;;;;;;;4.50;2.30;;;23.90;27.80;;;;;;5051103;28;20448;-75
2022/06/13 13:52:34;;;;;;;8.37;2.97;;;23.90;28.50;;;;;;5045740;28;20469;-75
2022/06/13 13:55:25;;;;;;;7.30;2.60;;;23.80;27.80;;;;;;5043211;28;21183;-75
2022/06/13 13:58:16;;;;;;;5.00;2.53;;;23.50;28.80;;;;;;5055261;28;21050;-74
2022/06/13 14:01:22;;;;;;;8.80;2.50;;;23.50;29.20;;;;;;5041496;28;20495;-75
2022/06/13 14:04:42;;;;;;;7.17;2.10;;;23.50;29.30;;;;;;5041102;28;20987;-75
2022/06/13 14:07:56;;;;;;;7.47;2.73;;;23.60;30.00;;;;;;5041779;28;21095;-75
2022/06/13 14:10:44;;;;;;;6.33;2.50;;;23.70;29.40;;;;;;5044480;28;20922;-75
2022/06/13 14:13:33;;;;;;;8.20;2.20;;;23.80;29.50;;;;;;5043612;28;21212;-75
2022/06/13 14:16:36;;;;;;;10.53;2.63;;;23.80;29.50;;;;;;5046017;28;20440;-75
2022/06/13 14:19:25;;;;;;;16.93;3.33;;;23.90;29.60;;;;;;5042064;28;20590;-75
2022/06/13 14:22:20;;;;;;;7.70;2.63;;;23.50;29.30;;;;;;5042456;28;20799;-75
2022/06/13 14:25:19;;;;;;;6.93;2.90;;;23.40;29.20;;;;;;5051497;28;20554;-75
2022/06/13 14:28:07;;;;;;;6.20;2.40;;;23.50;30.30;;;;;;5048255;28;20436;-75
2022/06/13 14:31:04;;;;;;;5.80;2.27;;;23.60;29.40;;;;;;5044164;28;20431;-75
2022/06/13 14:37:13;;;;;;;11.63;2.17;;;23.30;30.00;;;;;;5045341;28;20440;-75
2022/06/13 14:40:08;;;;;;;7.27;2.47;;;23.10;29.70;;;;;;5046075;28;20813;-75
2022/06/13 14:42:59;;;;;;;5.97;2.60;;;23.10;31.50;;;;;;5035587;28;20448;-75
2022/06/13 14:45:49;;;;;;;5.93;2.83;;;22.80;30.10;;;;;;5043932;28;20486;-74
2022/06/13 14:48:42;;;;;;;10.70;2.77;;;22.90;30.80;;;;;;5045889;28;20730;-75
2022/06/13 14:51:32;;;;;;;16.67;3.20;;;22.90;31.10;;;;;;5042368;28;20574;-75
2022/06/13 14:54:53;;;;;;;12.50;3.10;;;22.90;32.00;;;;;;5039719;28;20964;-74
2022/06/13 14:57:51;;;;;;;10.37;3.10;;;22.90;31.70;;;;;;5037928;28;20432;-74
2022/06/13 15:00:36;;;;;;;6.40;2.30;;;23.20;32.50;;;;;;5043055;28;20432;-74
2022/06/13 15:03:22;;;;;;;9.80;2.73;;;23.40;31.40;;;;;;5047017;28;20818;-74
2022/06/13 15:06:11;;;;;;;11.07;3.40;;;23.50;31.40;;;;;;5053314;28;20838;-74
2022/06/13 15:09:18;;;;;;;10.00;3.10;;;23.60;31.70;;;;;;5057562;28;20423;-74
2022/06/13 15:12:10;;;;;;;8.43;2.60;;;23.60;31.20;;;;;;5047173;28;20518;-74
2022/06/13 15:14:59;;;;;;;7.87;3.10;;;23.40;31.30;;;;;;5045342;28;20459;-74